Main page
METAR-TAF:

METAR-TAF

Airports :

York Municipal Airport

York, Nebraska, United States

latitude: 40-53-48N, longitude: 097-37-22W, elevation: 1670 ft

Current weather observation

The report was made 24 minutes ago, at 04:35 UTC
Wind 10 mph from the North with gusts up to 17 mph
Temperature 61°F
Humidity 94%
Pressure 30.00 in. Hg
Visibility: 10 miles
Broken clouds at a height of 3700 ft

METAR: KJYR 190435Z AUTO 01009G15KT 10SM BKN037 16/15 A3000 RMK AO2

Time: 23:59 (04:59 UTC)


TAF: missing

Weather observations and forecasts of more than 4000 airports (METAR and TAF reports).

The available stations are represented by yellow and red dots on the map.

Hover mouse over dot to see the name of the station.

Then click to see weather observations and forecasts.

To change the map : click on the green buttons with a black cross to zoom in, on the green button with a dash to zoom out, or on the green arrows for adjacent maps.


METAR-TAF: